Spirit Of Philadelphia — WDD4763 — position and weather

sailwx.info

Track history (hours):
 
Tides and Currents Weather Stations Pressure Air Temp Water Temp Dewpoint Dewpoint Depression Visibility Wind Speed Wind Dir Waves Ship Positions

Spirit Of Philadelphia

Owner: Spirit Cruises, LLC, Chicago, IL. More information available from US FCC via Universal Licensing System and Coast Guard Vessel Documentation Center.

Last reported at 2018-Jun-18 00:54 UTC. Time now 2018-Jun-18 01:33 UTC.
Position N 39°56' W 075°08'.

Length 48 m; draft 2.1 m.

Type: Passenger vessel. MMSI: 367148710.

Date/timePositionNaut miles runAvg speedWind from/ knotsBaromVisibWave heightAir tempDewpointWater temp
2018-Jun-18 00:54N 39°56' W 075°08'0 0.0
2018-Jun-18 00:30N 39°56' W 075°08'2 3.1
2018-Jun-18 00:00N 39°55' W 075°08'2 4.7
2018-Jun-17 23:31N 39°53' W 075°09'3 6.7
2018-Jun-17 23:00N 39°56' W 075°08'2 4.2
2018-Jun-17 22:31N 39°58' W 075°07'2 3.8
2018-Jun-17 22:00N 39°56' W 075°08'0 0.0
2018-Jun-17 21:30N 39°56' W 075°08'0 0.0
2018-Jun-17 21:00N 39°56' W 075°08'0 0.0
2018-Jun-17 20:30N 39°56' W 075°08'0 0.0
2018-Jun-17 19:58N 39°56' W 075°08'0 0.0
2018-Jun-17 19:30N 39°56' W 075°08'0 0.0
2018-Jun-17 19:01N 39°56' W 075°08'1 1.3
2018-Jun-17 18:30N 39°57' W 075°08'2 5.0
2018-Jun-17 18:01N 39°55' W 075°08'3 5.2
2018-Jun-17 17:30N 39°57' W 075°08'1 1.4
2018-Jun-17 17:00N 39°56' W 075°08'0 0.0
2018-Jun-17 16:30N 39°56' W 075°08'0 0.0
2018-Jun-17 16:00N 39°56' W 075°08'0 0.0
2018-Jun-17 15:30N 39°56' W 075°08'0 0.0
2018-Jun-17 03:12N 39°56' W 075°08'0 0.0
2018-Jun-17 03:01N 39°56' W 075°08'0 0.0
2018-Jun-17 02:31N 39°56' W 075°08'1 2.8
2018-Jun-17 02:00N 39°55' W 075°08'3 5.0
2018-Jun-17 01:30N 39°53' W 075°09'2 3.8
2018-Jun-17 01:01N 39°54' W 075°08'3 6.8
2018-Jun-17 00:30N 39°58' W 075°08'1 1.3
2018-Jun-17 00:00N 39°57' W 075°08'1 1.8
2018-Jun-16 23:31N 39°56' W 075°08'0 0.0
2018-Jun-16 23:00N 39°56' W 075°08'0 0.0
2018-Jun-16 22:30N 39°56' W 075°08'0 0.0
2018-Jun-16 22:00N 39°56' W 075°08'0 0.0
2018-Jun-16 21:30N 39°56' W 075°08'0 0.0
2018-Jun-16 21:00N 39°56' W 075°08'0 0.0
2018-Jun-16 18:14N 39°56' W 075°08'0 0.0
2018-Jun-16 17:58N 39°56' W 075°08'0 0.0
2018-Jun-16 17:29N 39°56' W 075°08'2 3.6
2018-Jun-16 17:00N 39°58' W 075°07'2 4.6
2018-Jun-16 16:30N 39°56' W 075°08'0 0.8
2018-Jun-16 16:00N 39°56' W 075°08'0 0.8
2018-Jun-16 15:30N 39°56' W 075°08'0 0.0
2018-Jun-16 02:58N 39°56' W 075°08'0 0.0
2018-Jun-16 02:31N 39°56' W 075°08'0 1.0
2018-Jun-16 02:00N 39°57' W 075°08'1 1.8
2018-Jun-16 01:31N 39°58' W 075°08'3 6.1
2018-Jun-16 01:01N 39°55' W 075°08'3 5.1
2018-Jun-16 00:30N 39°53' W 075°10'3 5.1
2018-Jun-16 00:00N 39°55' W 075°08'2 3.9
2018-Jun-15 23:31N 39°56' W 075°08'0 0.0
2018-Jun-15 23:00N 39°56' W 075°08'0 0.0
2018-Jun-15 22:30N 39°56' W 075°08'0 0.0
2018-Jun-15 22:00N 39°56' W 075°08'0 0.0
2018-Jun-15 18:44N 39°56' W 075°08'0 0.0
2018-Jun-15 18:30N 39°56' W 075°08'0 0.0
2018-Jun-15 18:00N 39°56' W 075°08'1 2.8
2018-Jun-15 17:30N 39°55' W 075°08'2 4.6
2018-Jun-15 17:00N 39°53' W 075°09'3 5.6
2018-Jun-15 16:30N 39°56' W 075°08'1 1.6
2018-Jun-15 16:00N 39°56' W 075°08'0 0.0
2018-Jun-15 15:30N 39°56' W 075°08'0 0.0
2018-Jun-15 15:00N 39°56' W 075°08'0 0.0
2018-Jun-15 14:30N 39°56' W 075°08'0 0.0
2018-Jun-15 14:00N 39°56' W 075°08'0 0.0
2018-Jun-15 13:30N 39°56' W 075°08'0 0.0
2018-Jun-15 13:00N 39°56' W 075°08'0 0.0
2018-Jun-15 12:30N 39°56' W 075°08'0 0.0
2018-Jun-15 12:00N 39°56' W 075°08'0 0.0
2018-Jun-15 11:30N 39°56' W 075°08'0 0.0
2018-Jun-15 02:05N 39°56' W 075°08'0 0.0
2018-Jun-15 01:59N 39°56' W 075°08'0 0.0
2018-Jun-15 01:30N 39°56' W 075°08'2 3.3
2018-Jun-15 01:01N 39°58' W 075°07'3 6.0
2018-Jun-15 00:31N 39°55' W 075°08'3 5.3
2018-Jun-15 00:00N 39°53' W 075°10'2 3.9
2018-Jun-14 23:30N 39°54' W 075°08'2 4.9
2018-Jun-14 23:00N 39°56' W 075°08'0 0.0
2018-Jun-14 22:30N 39°56' W 075°08'0 0.0
2018-Jun-14 22:01N 39°56' W 075°08'0 0.0
2018-Jun-14 18:48N 39°56' W 075°08'0 0.0
2018-Jun-14 18:30N 39°56' W 075°08'0 0.0
2018-Jun-14 18:00N 39°56' W 075°08'0 0.0
2018-Jun-14 17:30N 39°56' W 075°08'0 0.0
2018-Jun-14 17:01N 39°56' W 075°08'0 0.3
2018-Jun-14 16:31N 39°57' W 075°08'2 4.0
2018-Jun-14 16:00N 39°55' W 075°08'0 0.2
2018-Jun-14 15:30N 39°55' W 075°08'2 4.8
2018-Jun-14 15:00N 39°57' W 075°08'1 0.0
2018-Jun-14 02:18N 39°56' W 075°08'0 0.0
2018-Jun-14 02:00N 39°56' W 075°08'1 2.1
2018-Jun-14 01:30N 39°55' W 075°08'1 1.5
2018-Jun-14 01:00N 39°56' W 075°08'2 3.4
2018-Jun-14 00:30N 39°55' W 075°08'3 5.7
2018-Jun-14 00:00N 39°58' W 075°08'0 0.2
2018-Jun-13 23:31N 39°57' W 075°08'1 2.0
2018-Jun-13 23:00N 39°56' W 075°08'0 0.0
2018-Jun-13 17:58N 39°56' W 075°08'0 0.7
2018-Jun-13 17:30N 39°56' W 075°08'2 4.9
2018-Jun-13 17:00N 39°54' W 075°08'2 4.9
2018-Jun-13 16:30N 39°56' W 075°08'0 0.7
2018-Jun-13 16:00N 39°56' W 075°08'0 0.0
2018-Jun-13 02:07N 39°56' W 075°08'0 0.0
2018-Jun-13 02:01N 39°56' W 075°08'0 0.0
2018-Jun-13 01:30N 39°56' W 075°08'2 4.0
2018-Jun-13 01:00N 39°55' W 075°08'1 1.1
2018-Jun-13 00:30N 39°54' W 075°08'3 5.4
2018-Jun-13 00:00N 39°57' W 075°08'1 2.6
2018-Jun-12 23:30N 39°58' W 075°07'2 3.2
2018-Jun-12 23:01N 39°56' W 075°08'0 0.0
2018-Jun-12 17:39N 39°56' W 075°08'0 0.0
2018-Jun-12 17:30N 39°56' W 075°08'0 0.5
2018-Jun-12 17:00N 39°56' W 075°08'3 5.1
2018-Jun-12 16:30N 39°54' W 075°08'2 5.0
2018-Jun-12 16:00N 39°56' W 075°08'0 0.4
2018-Jun-12 15:30N 39°56' W 075°08'0 0.0
2018-Jun-11 17:47N 39°56' W 075°08'1 3.4
2018-Jun-11 17:30N 39°56' W 075°08'3 5.5
2018-Jun-11 17:00N 39°53' W 075°09'2 3.3
2018-Jun-11 16:30N 39°54' W 075°08'2 4.6
2018-Jun-11 16:01N 39°57' W 075°08'0 0.3
2018-Jun-11 15:30N 39°56' W 075°08'0 0.0
2018-Jun-11 15:00N 39°56' W 075°08'0 0.0
2018-Jun-11 14:30N 39°56' W 075°08'0 0.0
2018-Jun-11 14:00N 39°56' W 075°08'0 0.0
2018-Jun-11 13:30N 39°56' W 075°08'0 0.0
2018-Jun-11 01:35N 39°56' W 075°08'0 0.0
2018-Jun-11 01:20N 39°56' W 075°08'0 0.0
2018-Jun-11 01:00N 39°56' W 075°08'1 1.0
2018-Jun-11 00:28N 39°56' W 075°08'1 1.1
2018-Jun-10 23:58N 39°56' W 075°08'2 2.8
2018-Jun-10 23:25N 39°58' W 075°08'1 2.4
2018-Jun-10 23:00N 39°57' W 075°08'1 1.0
2018-Jun-10 22:27N 39°56' W 075°08'0 0.0
2018-Jun-10 21:56N 39°56' W 075°08'0 0.0
2018-Jun-10 21:30N 39°56' W 075°08'0 0.0
2018-Jun-10 20:55N 39°56' W 075°08'0 0.0
2018-Jun-10 20:26N 39°56' W 075°08'0 0.0
2018-Jun-10 19:59N 39°56' W 075°08'0 0.1
2018-Jun-10 19:20N 39°56' W 075°08'2 6.9
2018-Jun-10 18:58N 39°54' W 075°08'2 2.8
2018-Jun-10 18:24N 39°53' W 075°09'4 6.5
2018-Jun-10 17:51N 39°56' W 075°08'0 0.3
2018-Jun-10 17:28N 39°56' W 075°08'0 0.0
2018-Jun-10 16:56N 39°56' W 075°08'0 0.0
2018-Jun-10 16:30N 39°56' W 075°08'0 0.0
2018-Jun-10 15:59N 39°56' W 075°08'0 0.0
2018-Jun-10 15:28N 39°56' W 075°08'0 0.0
2018-Jun-10 14:56N 39°56' W 075°08'0 0.0
2018-Jun-10 14:28N 39°56' W 075°08'0 0.0
2018-Jun-10 13:29N 39°56' W 075°08'0 0.0
2018-Jun-10 04:11N 39°56' W 075°08'0 0.0
2018-Jun-10 03:56N 39°56' W 075°08'0 0.0
2018-Jun-10 03:22N 39°56' W 075°08'0 0.0
2018-Jun-10 03:00N 39°56' W 075°08'0 0.0
2018-Jun-10 02:30N 39°56' W 075°08'0 0.1
2018-Jun-10 01:53N 39°57' W 075°08'0 0.1
2018-Jun-10 01:28N 39°56' W 075°08'1 1.1
2018-Jun-10 00:58N 39°57' W 075°08'2 3.7
2018-Jun-10 00:30N 39°58' W 075°07'2 4.6
2018-Jun-10 00:00N 39°56' W 075°08'0 0.0
2018-Jun-09 18:18N 39°56' W 075°08'0 0.0
2018-Jun-09 17:58N 39°56' W 075°08'2 4.1
2018-Jun-09 17:26N 39°54' W 075°08'0 1.0
2018-Jun-09 17:00N 39°54' W 075°08'1 1.9
2018-Jun-09 16:29N 39°55' W 075°08'2 3.2
2018-Jun-09 15:57N 39°56' W 075°08'0 0.0
2018-Jun-09 06:01N 39°56' W 075°08'0 0.0
2018-Jun-09 06:00N 39°56' W 075°08'1 1.5
2018-Jun-09 05:30N 39°56' W 075°08'1 2.7
2018-Jun-09 05:00N 39°57' W 075°08'1 2.4
2018-Jun-09 04:30N 39°58' W 075°07'2 3.6
2018-Jun-09 04:00N 39°57' W 075°08'0 0.2
2018-Jun-09 03:30N 39°56' W 075°08'0 0.0
2018-Jun-09 02:59N 39°56' W 075°08'0 0.0
2018-Jun-09 02:30N 39°56' W 075°08'1 2.5
2018-Jun-09 02:00N 39°55' W 075°08'3 5.0
2018-Jun-09 01:30N 39°53' W 075°09'1 2.3
2018-Jun-09 01:00N 39°54' W 075°08'3 5.6
2018-Jun-09 00:30N 39°57' W 075°08'2 4.0
2018-Jun-09 00:01N 39°58' W 075°06'2 4.5
2018-Jun-08 23:30N 39°56' W 075°08'0 0.0
2018-Jun-08 23:00N 39°56' W 075°08'0 0.0
2018-Jun-08 22:30N 39°56' W 075°08'0 0.0
2018-Jun-08 22:00N 39°56' W 075°08'0 0.0
2018-Jun-08 21:30N 39°56' W 075°08'2 3.3
2018-Jun-08 21:00N 39°55' W 075°08'1 2.8
2018-Jun-08 20:30N 39°54' W 075°08'3 6.5
2018-Jun-08 20:01N 39°57' W 075°08'0 0.7
2018-Jun-08 19:30N 39°56' W 075°08'0 0.0
2018-Jun-08 18:59N 39°56' W 075°08'0 0.0
2018-Jun-08 18:30N 39°56' W 075°08'0 0.0
2018-Jun-08 18:00N 39°56' W 075°08'0 0.0
2018-Jun-08 17:30N 39°56' W 075°08'2 4.6
2018-Jun-08 17:00N 39°54' W 075°08'1 2.3
2018-Jun-08 16:29N 39°53' W 075°09'3 6.0
2018-Jun-08 16:00N 39°56' W 075°08'0 1.0
2018-Jun-08 15:30N 39°56' W 075°08'0 0.0
2018-Jun-08 01:30N 39°56' W 075°08'2 4.0
2018-Jun-08 01:01N 39°55' W 075°08'  
Track history (hours):
 
Tides and Currents Weather Stations Pressure Air Temp Water Temp Dewpoint Dewpoint Depression Visibility Wind Speed Wind Dir Waves Ship Positions

Spirit Of Philadelphia

Owner: Spirit Cruises, LLC, Chicago, IL. More information available from US FCC via Universal Licensing System and Coast Guard Vessel Documentation Center.

Last reported at 2018-Jun-18 00:54 UTC. Time now 2018-Jun-18 01:33 UTC.
Position N 39°56' W 075°08'.

Length 48 m; draft 2.1 m.

Type: Passenger vessel. MMSI: 367148710.

Date/timePositionNaut miles runAvg speedWind from/ knotsBaromVisibWave heightAir tempDewpointWater temp
2018-Jun-18 00:54N 39°56' W 075°08'0 0.0
2018-Jun-18 00:30N 39°56' W 075°08'2 3.1
2018-Jun-18 00:00N 39°55' W 075°08'2 4.7
2018-Jun-17 23:31N 39°53' W 075°09'3 6.7
2018-Jun-17 23:00N 39°56' W 075°08'2 4.2
2018-Jun-17 22:31N 39°58' W 075°07'2 3.8
2018-Jun-17 22:00N 39°56' W 075°08'0 0.0
2018-Jun-17 21:30N 39°56' W 075°08'0 0.0
2018-Jun-17 21:00N 39°56' W 075°08'0 0.0
2018-Jun-17 20:30N 39°56' W 075°08'0 0.0
2018-Jun-17 19:58N 39°56' W 075°08'0 0.0
2018-Jun-17 19:30N 39°56' W 075°08'0 0.0
2018-Jun-17 19:01N 39°56' W 075°08'1 1.3
2018-Jun-17 18:30N 39°57' W 075°08'2 5.0
2018-Jun-17 18:01N 39°55' W 075°08'3 5.2
2018-Jun-17 17:30N 39°57' W 075°08'1 1.4
2018-Jun-17 17:00N 39°56' W 075°08'0 0.0
2018-Jun-17 16:30N 39°56' W 075°08'0 0.0
2018-Jun-17 16:00N 39°56' W 075°08'0 0.0
2018-Jun-17 15:30N 39°56' W 075°08'0 0.0
2018-Jun-17 03:12N 39°56' W 075°08'0 0.0
2018-Jun-17 03:01N 39°56' W 075°08'0 0.0
2018-Jun-17 02:31N 39°56' W 075°08'1 2.8
2018-Jun-17 02:00N 39°55' W 075°08'3 5.0
2018-Jun-17 01:30N 39°53' W 075°09'2 3.8
2018-Jun-17 01:01N 39°54' W 075°08'3 6.8
2018-Jun-17 00:30N 39°58' W 075°08'1 1.3
2018-Jun-17 00:00N 39°57' W 075°08'1 1.8
2018-Jun-16 23:31N 39°56' W 075°08'0 0.0
2018-Jun-16 23:00N 39°56' W 075°08'0 0.0
2018-Jun-16 22:30N 39°56' W 075°08'0 0.0
2018-Jun-16 22:00N 39°56' W 075°08'0 0.0
2018-Jun-16 21:30N 39°56' W 075°08'0 0.0
2018-Jun-16 21:00N 39°56' W 075°08'0 0.0
2018-Jun-16 18:14N 39°56' W 075°08'0 0.0
2018-Jun-16 17:58N 39°56' W 075°08'0 0.0
2018-Jun-16 17:29N 39°56' W 075°08'2 3.6
2018-Jun-16 17:00N 39°58' W 075°07'2 4.6
2018-Jun-16 16:30N 39°56' W 075°08'0 0.8
2018-Jun-16 16:00N 39°56' W 075°08'0 0.8
2018-Jun-16 15:30N 39°56' W 075°08'0 0.0
2018-Jun-16 02:58N 39°56' W 075°08'0 0.0
2018-Jun-16 02:31N 39°56' W 075°08'0 1.0
2018-Jun-16 02:00N 39°57' W 075°08'1 1.8
2018-Jun-16 01:31N 39°58' W 075°08'3 6.1
2018-Jun-16 01:01N 39°55' W 075°08'3 5.1
2018-Jun-16 00:30N 39°53' W 075°10'3 5.1
2018-Jun-16 00:00N 39°55' W 075°08'2 3.9
2018-Jun-15 23:31N 39°56' W 075°08'0 0.0
2018-Jun-15 23:00N 39°56' W 075°08'0 0.0
2018-Jun-15 22:30N 39°56' W 075°08'0 0.0
2018-Jun-15 22:00N 39°56' W 075°08'0 0.0
2018-Jun-15 18:44N 39°56' W 075°08'0 0.0
2018-Jun-15 18:30N 39°56' W 075°08'0 0.0
2018-Jun-15 18:00N 39°56' W 075°08'1 2.8
2018-Jun-15 17:30N 39°55' W 075°08'2 4.6
2018-Jun-15 17:00N 39°53' W 075°09'3 5.6
2018-Jun-15 16:30N 39°56' W 075°08'1 1.6
2018-Jun-15 16:00N 39°56' W 075°08'0 0.0
2018-Jun-15 15:30N 39°56' W 075°08'0 0.0
2018-Jun-15 15:00N 39°56' W 075°08'0 0.0
2018-Jun-15 14:30N 39°56' W 075°08'0 0.0
2018-Jun-15 14:00N 39°56' W 075°08'0 0.0
2018-Jun-15 13:30N 39°56' W 075°08'0 0.0
2018-Jun-15 13:00N 39°56' W 075°08'0 0.0
2018-Jun-15 12:30N 39°56' W 075°08'0 0.0
2018-Jun-15 12:00N 39°56' W 075°08'0 0.0
2018-Jun-15 11:30N 39°56' W 075°08'0 0.0
2018-Jun-15 02:05N 39°56' W 075°08'0 0.0
2018-Jun-15 01:59N 39°56' W 075°08'0 0.0
2018-Jun-15 01:30N 39°56' W 075°08'2 3.3
2018-Jun-15 01:01N 39°58' W 075°07'3 6.0
2018-Jun-15 00:31N 39°55' W 075°08'3 5.3
2018-Jun-15 00:00N 39°53' W 075°10'2 3.9
2018-Jun-14 23:30N 39°54' W 075°08'2 4.9
2018-Jun-14 23:00N 39°56' W 075°08'0 0.0
2018-Jun-14 22:30N 39°56' W 075°08'0 0.0
2018-Jun-14 22:01N 39°56' W 075°08'0 0.0
2018-Jun-14 18:48N 39°56' W 075°08'0 0.0
2018-Jun-14 18:30N 39°56' W 075°08'0 0.0
2018-Jun-14 18:00N 39°56' W 075°08'0 0.0
2018-Jun-14 17:30N 39°56' W 075°08'0 0.0
2018-Jun-14 17:01N 39°56' W 075°08'0 0.3
2018-Jun-14 16:31N 39°57' W 075°08'2 4.0
2018-Jun-14 16:00N 39°55' W 075°08'0 0.2
2018-Jun-14 15:30N 39°55' W 075°08'2 4.8
2018-Jun-14 15:00N 39°57' W 075°08'1 0.0
2018-Jun-14 02:18N 39°56' W 075°08'0 0.0
2018-Jun-14 02:00N 39°56' W 075°08'1 2.1
2018-Jun-14 01:30N 39°55' W 075°08'1 1.5
2018-Jun-14 01:00N 39°56' W 075°08'2 3.4
2018-Jun-14 00:30N 39°55' W 075°08'3 5.7
2018-Jun-14 00:00N 39°58' W 075°08'0 0.2
2018-Jun-13 23:31N 39°57' W 075°08'1 2.0
2018-Jun-13 23:00N 39°56' W 075°08'0 0.0
2018-Jun-13 17:58N 39°56' W 075°08'0 0.7
2018-Jun-13 17:30N 39°56' W 075°08'2 4.9
2018-Jun-13 17:00N 39°54' W 075°08'2 4.9
2018-Jun-13 16:30N 39°56' W 075°08'0 0.7
2018-Jun-13 16:00N 39°56' W 075°08'0 0.0
2018-Jun-13 02:07N 39°56' W 075°08'0 0.0
2018-Jun-13 02:01N 39°56' W 075°08'0 0.0
2018-Jun-13 01:30N 39°56' W 075°08'2 4.0
2018-Jun-13 01:00N 39°55' W 075°08'1 1.1
2018-Jun-13 00:30N 39°54' W 075°08'3 5.4
2018-Jun-13 00:00N 39°57' W 075°08'1 2.6
2018-Jun-12 23:30N 39°58' W 075°07'2 3.2
2018-Jun-12 23:01N 39°56' W 075°08'0 0.0
2018-Jun-12 17:39N 39°56' W 075°08'0 0.0
2018-Jun-12 17:30N 39°56' W 075°08'0 0.5
2018-Jun-12 17:00N 39°56' W 075°08'3 5.1
2018-Jun-12 16:30N 39°54' W 075°08'2 5.0
2018-Jun-12 16:00N 39°56' W 075°08'0 0.4
2018-Jun-12 15:30N 39°56' W 075°08'0 0.0
2018-Jun-11 17:47N 39°56' W 075°08'1 3.4
2018-Jun-11 17:30N 39°56' W 075°08'3 5.5
2018-Jun-11 17:00N 39°53' W 075°09'2 3.3
2018-Jun-11 16:30N 39°54' W 075°08'2 4.6
2018-Jun-11 16:01N 39°57' W 075°08'0 0.3
2018-Jun-11 15:30N 39°56' W 075°08'0 0.0
2018-Jun-11 15:00N 39°56' W 075°08'0 0.0
2018-Jun-11 14:30N 39°56' W 075°08'0 0.0
2018-Jun-11 14:00N 39°56' W 075°08'0 0.0
2018-Jun-11 13:30N 39°56' W 075°08'0 0.0
2018-Jun-11 01:35N 39°56' W 075°08'0 0.0
2018-Jun-11 01:20N 39°56' W 075°08'0 0.0
2018-Jun-11 01:00N 39°56' W 075°08'1 1.0
2018-Jun-11 00:28N 39°56' W 075°08'1 1.1
2018-Jun-10 23:58N 39°56' W 075°08'2 2.8
2018-Jun-10 23:25N 39°58' W 075°08'1 2.4
2018-Jun-10 23:00N 39°57' W 075°08'1 1.0
2018-Jun-10 22:27N 39°56' W 075°08'0 0.0
2018-Jun-10 21:56N 39°56' W 075°08'0 0.0
2018-Jun-10 21:30N 39°56' W 075°08'0 0.0
2018-Jun-10 20:55N 39°56' W 075°08'0 0.0
2018-Jun-10 20:26N 39°56' W 075°08'0 0.0
2018-Jun-10 19:59N 39°56' W 075°08'0 0.1
2018-Jun-10 19:20N 39°56' W 075°08'2 6.9
2018-Jun-10 18:58N 39°54' W 075°08'2 2.8
2018-Jun-10 18:24N 39°53' W 075°09'4 6.5
2018-Jun-10 17:51N 39°56' W 075°08'0 0.3
2018-Jun-10 17:28N 39°56' W 075°08'0 0.0
2018-Jun-10 16:56N 39°56' W 075°08'0 0.0
2018-Jun-10 16:30N 39°56' W 075°08'0 0.0
2018-Jun-10 15:59N 39°56' W 075°08'0 0.0
2018-Jun-10 15:28N 39°56' W 075°08'0 0.0
2018-Jun-10 14:56N 39°56' W 075°08'0 0.0
2018-Jun-10 14:28N 39°56' W 075°08'0 0.0
2018-Jun-10 13:29N 39°56' W 075°08'0 0.0
2018-Jun-10 04:11N 39°56' W 075°08'0 0.0
2018-Jun-10 03:56N 39°56' W 075°08'0 0.0
2018-Jun-10 03:22N 39°56' W 075°08'0 0.0
2018-Jun-10 03:00N 39°56' W 075°08'0 0.0
2018-Jun-10 02:30N 39°56' W 075°08'0 0.1
2018-Jun-10 01:53N 39°57' W 075°08'0 0.1
2018-Jun-10 01:28N 39°56' W 075°08'1 1.1
2018-Jun-10 00:58N 39°57' W 075°08'2 3.7
2018-Jun-10 00:30N 39°58' W 075°07'2 4.6
2018-Jun-10 00:00N 39°56' W 075°08'0 0.0
2018-Jun-09 18:18N 39°56' W 075°08'0 0.0
2018-Jun-09 17:58N 39°56' W 075°08'2 4.1
2018-Jun-09 17:26N 39°54' W 075°08'0 1.0
2018-Jun-09 17:00N 39°54' W 075°08'1 1.9
2018-Jun-09 16:29N 39°55' W 075°08'2 3.2
2018-Jun-09 15:57N 39°56' W 075°08'0 0.0
2018-Jun-09 06:01N 39°56' W 075°08'0 0.0
2018-Jun-09 06:00N 39°56' W 075°08'1 1.5
2018-Jun-09 05:30N 39°56' W 075°08'1 2.7
2018-Jun-09 05:00N 39°57' W 075°08'1 2.4
2018-Jun-09 04:30N 39°58' W 075°07'2 3.6
2018-Jun-09 04:00N 39°57' W 075°08'0 0.2
2018-Jun-09 03:30N 39°56' W 075°08'0 0.0
2018-Jun-09 02:59N 39°56' W 075°08'0 0.0
2018-Jun-09 02:30N 39°56' W 075°08'1 2.5
2018-Jun-09 02:00N 39°55' W 075°08'3 5.0
2018-Jun-09 01:30N 39°53' W 075°09'1 2.3
2018-Jun-09 01:00N 39°54' W 075°08'3 5.6
2018-Jun-09 00:30N 39°57' W 075°08'2 4.0
2018-Jun-09 00:01N 39°58' W 075°06'2 4.5
2018-Jun-08 23:30N 39°56' W 075°08'0 0.0
2018-Jun-08 23:00N 39°56' W 075°08'0 0.0
2018-Jun-08 22:30N 39°56' W 075°08'0 0.0
2018-Jun-08 22:00N 39°56' W 075°08'0 0.0
2018-Jun-08 21:30N 39°56' W 075°08'2 3.3
2018-Jun-08 21:00N 39°55' W 075°08'1 2.8
2018-Jun-08 20:30N 39°54' W 075°08'3 6.5
2018-Jun-08 20:01N 39°57' W 075°08'0 0.7
2018-Jun-08 19:30N 39°56' W 075°08'0 0.0
2018-Jun-08 18:59N 39°56' W 075°08'0 0.0
2018-Jun-08 18:30N 39°56' W 075°08'0 0.0
2018-Jun-08 18:00N 39°56' W 075°08'0 0.0
2018-Jun-08 17:30N 39°56' W 075°08'2 4.6
2018-Jun-08 17:00N 39°54' W 075°08'1 2.3
2018-Jun-08 16:29N 39°53' W 075°09'3 6.0
2018-Jun-08 16:00N 39°56' W 075°08'0 1.0
2018-Jun-08 15:30N 39°56' W 075°08'0 0.0
2018-Jun-08 01:30N 39°56' W 075°08'2 4.0
2018-Jun-08 01:01N 39°55' W 075°08'  

Dump ship's entire track history